sensor_id;sensor_type;location;lat;lon;timestamp;P1;durP1;ratioP1;P2;durP2;ratioP2
9294;SDS011;4686;44.496;11.324;2023-01-13T00:00:16;15.23;;;11.40;;
9294;SDS011;4686;44.496;11.324;2023-01-13T00:02:43;12.20;;;10.83;;
9294;SDS011;4686;44.496;11.324;2023-01-13T00:05:11;11.90;;;10.80;;
9294;SDS011;4686;44.496;11.324;2023-01-13T00:07:45;14.13;;;12.60;;
9294;SDS011;4686;44.496;11.324;2023-01-13T00:13:26;12.97;;;11.57;;
9294;SDS011;4686;44.496;11.324;2023-01-13T00:30:48;10.47;;;9.50;;
9294;SDS011;4686;44.496;11.324;2023-01-13T00:33:16;10.93;;;9.83;;
9294;SDS011;4686;44.496;11.324;2023-01-13T00:35:43;13.05;;;10.20;;
9294;SDS011;4686;44.496;11.324;2023-01-13T00:38:11;11.00;;;9.90;;
9294;SDS011;4686;44.496;11.324;2023-01-13T00:40:38;12.63;;;9.93;;
9294;SDS011;4686;44.496;11.324;2023-01-13T00:43:05;14.17;;;11.03;;
9294;SDS011;4686;44.496;11.324;2023-01-13T00:45:48;13.50;;;11.07;;
9294;SDS011;4686;44.496;11.324;2023-01-13T00:48:16;10.80;;;9.70;;
9294;SDS011;4686;44.496;11.324;2023-01-13T00:50:44;11.67;;;10.30;;
9294;SDS011;4686;44.496;11.324;2023-01-13T00:53:11;10.90;;;9.80;;
9294;SDS011;4686;44.496;11.324;2023-01-13T00:55:39;9.97;;;9.10;;
9294;SDS011;4686;44.496;11.324;2023-01-13T00:58:06;10.30;;;9.30;;
9294;SDS011;4686;44.496;11.324;2023-01-13T01:00:34;14.40;;;9.90;;
9294;SDS011;4686;44.496;11.324;2023-01-13T01:03:02;10.00;;;9.00;;
9294;SDS011;4686;44.496;11.324;2023-01-13T01:05:32;10.70;;;9.60;;
9294;SDS011;4686;44.496;11.324;2023-01-13T01:08:00;11.13;;;10.03;;
9294;SDS011;4686;44.496;11.324;2023-01-13T01:10:27;11.33;;;10.27;;
9294;SDS011;4686;44.496;11.324;2023-01-13T01:12:55;13.83;;;10.60;;
9294;SDS011;4686;44.496;11.324;2023-01-13T01:15:23;12.00;;;10.80;;
9294;SDS011;4686;44.496;11.324;2023-01-13T01:17:50;13.37;;;11.13;;
9294;SDS011;4686;44.496;11.324;2023-01-13T01:20:19;10.50;;;9.43;;
9294;SDS011;4686;44.496;11.324;2023-01-13T01:22:46;11.03;;;9.60;;
9294;SDS011;4686;44.496;11.324;2023-01-13T01:25:14;10.60;;;9.60;;
9294;SDS011;4686;44.496;11.324;2023-01-13T01:27:41;10.73;;;9.73;;
9294;SDS011;4686;44.496;11.324;2023-01-13T01:30:09;11.63;;;10.00;;
9294;SDS011;4686;44.496;11.324;2023-01-13T01:32:37;11.80;;;10.60;;
9294;SDS011;4686;44.496;11.324;2023-01-13T01:35:04;10.70;;;9.80;;
9294;SDS011;4686;44.496;11.324;2023-01-13T01:37:33;11.63;;;10.00;;
9294;SDS011;4686;44.496;11.324;2023-01-13T01:40:00;11.43;;;10.13;;
9294;SDS011;4686;44.496;11.324;2023-01-13T01:42:27;11.13;;;9.70;;
9294;SDS011;4686;44.496;11.324;2023-01-13T01:45:13;11.50;;;9.90;;
9294;SDS011;4686;44.496;11.324;2023-01-13T01:47:41;11.07;;;10.07;;
9294;SDS011;4686;44.496;11.324;2023-01-13T01:50:08;12.87;;;9.80;;
9294;SDS011;4686;44.496;11.324;2023-01-13T01:52:38;17.00;;;10.50;;
9294;SDS011;4686;44.496;11.324;2023-01-13T01:55:07;11.13;;;10.03;;
9294;SDS011;4686;44.496;11.324;2023-01-13T01:57:38;12.47;;;10.20;;
9294;SDS011;4686;44.496;11.324;2023-01-13T02:00:08;10.20;;;9.20;;
9294;SDS011;4686;44.496;11.324;2023-01-13T02:02:36;10.60;;;9.43;;
9294;SDS011;4686;44.496;11.324;2023-01-13T02:05:03;10.83;;;9.30;;
9294;SDS011;4686;44.496;11.324;2023-01-13T02:07:31;10.60;;;9.43;;
9294;SDS011;4686;44.496;11.324;2023-01-13T02:10:01;9.77;;;8.80;;
9294;SDS011;4686;44.496;11.324;2023-01-13T02:12:29;9.50;;;8.60;;
9294;SDS011;4686;44.496;11.324;2023-01-13T02:14:56;10.40;;;9.20;;
9294;SDS011;4686;44.496;11.324;2023-01-13T02:17:27;10.27;;;9.27;;
9294;SDS011;4686;44.496;11.324;2023-01-13T02:22:46;9.80;;;8.90;;
9294;SDS011;4686;44.496;11.324;2023-01-13T02:25:32;11.00;;;10.00;;
9294;SDS011;4686;44.496;11.324;2023-01-13T02:28:06;10.57;;;9.57;;
9294;SDS011;4686;44.496;11.324;2023-01-13T02:30:41;10.40;;;9.40;;
9294;SDS011;4686;44.496;11.324;2023-01-13T02:33:33;9.73;;;8.93;;
9294;SDS011;4686;44.496;11.324;2023-01-13T02:36:03;11.87;;;9.60;;
9294;SDS011;4686;44.496;11.324;2023-01-13T02:38:33;10.40;;;9.33;;
9294;SDS011;4686;44.496;11.324;2023-01-13T02:41:02;11.30;;;10.20;;
9294;SDS011;4686;44.496;11.324;2023-01-13T02:43:45;11.73;;;10.53;;
9294;SDS011;4686;44.496;11.324;2023-01-13T02:46:32;11.47;;;10.30;;
9294;SDS011;4686;44.496;11.324;2023-01-13T02:49:01;12.50;;;11.20;;
9294;SDS011;4686;44.496;11.324;2023-01-13T02:51:30;13.83;;;11.07;;
9294;SDS011;4686;44.496;11.324;2023-01-13T02:53:58;15.40;;;12.60;;
9294;SDS011;4686;44.496;11.324;2023-01-13T02:56:26;13.17;;;11.73;;
9294;SDS011;4686;44.496;11.324;2023-01-13T02:58:55;12.27;;;11.03;;
9294;SDS011;4686;44.496;11.324;2023-01-13T03:01:23;12.30;;;11.00;;
9294;SDS011;4686;44.496;11.324;2023-01-13T03:03:52;11.63;;;10.53;;
9294;SDS011;4686;44.496;11.324;2023-01-13T03:06:25;13.03;;;11.33;;
9294;SDS011;4686;44.496;11.324;2023-01-13T03:08:59;12.50;;;11.13;;
9294;SDS011;4686;44.496;11.324;2023-01-13T03:11:27;12.93;;;11.60;;
9294;SDS011;4686;44.496;11.324;2023-01-13T03:14:09;14.10;;;11.07;;
9294;SDS011;4686;44.496;11.324;2023-01-13T03:16:44;13.87;;;12.37;;
9294;SDS011;4686;44.496;11.324;2023-01-13T03:19:25;15.00;;;13.40;;
9294;SDS011;4686;44.496;11.324;2023-01-13T03:21:56;15.17;;;13.47;;
9294;SDS011;4686;44.496;11.324;2023-01-13T03:24:27;13.53;;;12.17;;
9294;SDS011;4686;44.496;11.324;2023-01-13T03:26:57;14.60;;;13.10;;
9294;SDS011;4686;44.496;11.324;2023-01-13T03:29:26;15.87;;;14.27;;
9294;SDS011;4686;44.496;11.324;2023-01-13T03:31:57;20.37;;;17.00;;
9294;SDS011;4686;44.496;11.324;2023-01-13T03:34:28;18.80;;;16.07;;
9294;SDS011;4686;44.496;11.324;2023-01-13T03:36:58;17.73;;;15.87;;
9294;SDS011;4686;44.496;11.324;2023-01-13T03:39:28;20.10;;;16.27;;
9294;SDS011;4686;44.496;11.324;2023-01-13T03:41:57;18.20;;;16.20;;
9294;SDS011;4686;44.496;11.324;2023-01-13T03:44:26;23.00;;;16.90;;
9294;SDS011;4686;44.496;11.324;2023-01-13T03:46:58;19.37;;;17.27;;
9294;SDS011;4686;44.496;11.324;2023-01-13T03:49:31;20.53;;;17.20;;
9294;SDS011;4686;44.496;11.324;2023-01-13T03:52:02;19.43;;;17.43;;
9294;SDS011;4686;44.496;11.324;2023-01-13T03:54:31;19.00;;;17.00;;
9294;SDS011;4686;44.496;11.324;2023-01-13T03:57:00;19.43;;;16.80;;
9294;SDS011;4686;44.496;11.324;2023-01-13T03:59:31;21.90;;;18.20;;
9294;SDS011;4686;44.496;11.324;2023-01-13T04:02:00;20.90;;;17.40;;
9294;SDS011;4686;44.496;11.324;2023-01-13T04:04:31;19.07;;;17.03;;
9294;SDS011;4686;44.496;11.324;2023-01-13T04:07:00;23.07;;;17.73;;
9294;SDS011;4686;44.496;11.324;2023-01-13T04:09:32;19.27;;;17.27;;
9294;SDS011;4686;44.496;11.324;2023-01-13T04:12:02;20.10;;;17.60;;
9294;SDS011;4686;44.496;11.324;2023-01-13T04:14:33;22.43;;;17.90;;
9294;SDS011;4686;44.496;11.324;2023-01-13T04:17:02;21.13;;;18.50;;
9294;SDS011;4686;44.496;11.324;2023-01-13T04:19:30;25.70;;;20.20;;
9294;SDS011;4686;44.496;11.324;2023-01-13T04:21:58;21.33;;;19.17;;
9294;SDS011;4686;44.496;11.324;2023-01-13T04:24:25;22.40;;;17.83;;
9294;SDS011;4686;44.496;11.324;2023-01-13T04:26:53;19.63;;;17.53;;
9294;SDS011;4686;44.496;11.324;2023-01-13T04:29:20;23.30;;;18.93;;
9294;SDS011;4686;44.496;11.324;2023-01-13T04:31:49;22.03;;;18.57;;
9294;SDS011;4686;44.496;11.324;2023-01-13T04:34:16;23.53;;;20.30;;
9294;SDS011;4686;44.496;11.324;2023-01-13T04:36:45;26.27;;;20.90;;
9294;SDS011;4686;44.496;11.324;2023-01-13T04:39:12;28.63;;;22.70;;
9294;SDS011;4686;44.496;11.324;2023-01-13T04:41:39;28.50;;;23.60;;
9294;SDS011;4686;44.496;11.324;2023-01-13T04:44:26;27.00;;;22.10;;
9294;SDS011;4686;44.496;11.324;2023-01-13T04:46:54;31.27;;;22.57;;
9294;SDS011;4686;44.496;11.324;2023-01-13T04:49:22;28.17;;;22.80;;
9294;SDS011;4686;44.496;11.324;2023-01-13T04:51:50;26.00;;;21.83;;
9294;SDS011;4686;44.496;11.324;2023-01-13T04:54:18;24.13;;;21.57;;
9294;SDS011;4686;44.496;11.324;2023-01-13T04:56:47;24.97;;;21.60;;
9294;SDS011;4686;44.496;11.324;2023-01-13T04:59:16;27.23;;;21.97;;
9294;SDS011;4686;44.496;11.324;2023-01-13T05:01:44;27.63;;;22.43;;
9294;SDS011;4686;44.496;11.324;2023-01-13T05:04:11;28.00;;;22.33;;
9294;SDS011;4686;44.496;11.324;2023-01-13T05:06:41;37.37;;;23.27;;
9294;SDS011;4686;44.496;11.324;2023-01-13T05:09:10;28.20;;;21.70;;
9294;SDS011;4686;44.496;11.324;2023-01-13T05:11:39;27.37;;;22.30;;
9294;SDS011;4686;44.496;11.324;2023-01-13T05:14:24;32.87;;;22.37;;
9294;SDS011;4686;44.496;11.324;2023-01-13T05:17:08;30.90;;;23.20;;
9294;SDS011;4686;44.496;11.324;2023-01-13T05:19:37;29.50;;;25.20;;
9294;SDS011;4686;44.496;11.324;2023-01-13T05:22:05;29.53;;;24.07;;
9294;SDS011;4686;44.496;11.324;2023-01-13T05:24:51;30.70;;;23.87;;
9294;SDS011;4686;44.496;11.324;2023-01-13T05:27:37;28.37;;;23.07;;
9294;SDS011;4686;44.496;11.324;2023-01-13T05:30:06;26.30;;;23.50;;
9294;SDS011;4686;44.496;11.324;2023-01-13T05:32:33;28.53;;;25.10;;
9294;SDS011;4686;44.496;11.324;2023-01-13T05:35:03;30.10;;;24.83;;
9294;SDS011;4686;44.496;11.324;2023-01-13T05:37:30;28.80;;;25.60;;
9294;SDS011;4686;44.496;11.324;2023-01-13T05:39:59;30.90;;;24.50;;
9294;SDS011;4686;44.496;11.324;2023-01-13T05:42:44;32.50;;;25.40;;
9294;SDS011;4686;44.496;11.324;2023-01-13T05:45:28;29.90;;;25.40;;
9294;SDS011;4686;44.496;11.324;2023-01-13T05:47:56;29.00;;;25.73;;
9294;SDS011;4686;44.496;11.324;2023-01-13T05:50:23;29.80;;;25.17;;
9294;SDS011;4686;44.496;11.324;2023-01-13T05:52:50;35.40;;;24.77;;
9294;SDS011;4686;44.496;11.324;2023-01-13T05:55:19;28.00;;;23.73;;
9294;SDS011;4686;44.496;11.324;2023-01-13T05:57:46;27.30;;;23.83;;
9294;SDS011;4686;44.496;11.324;2023-01-13T06:02:41;29.53;;;24.70;;
9294;SDS011;4686;44.496;11.324;2023-01-13T06:05:08;29.47;;;24.77;;
9294;SDS011;4686;44.496;11.324;2023-01-13T06:07:35;27.23;;;22.90;;
9294;SDS011;4686;44.496;11.324;2023-01-13T06:10:02;32.33;;;25.40;;
9294;SDS011;4686;44.496;11.324;2023-01-13T06:12:31;34.50;;;24.70;;
9294;SDS011;4686;44.496;11.324;2023-01-13T06:14:58;31.90;;;24.30;;
9294;SDS011;4686;44.496;11.324;2023-01-13T06:17:26;36.30;;;26.20;;
9294;SDS011;4686;44.496;11.324;2023-01-13T06:19:53;32.00;;;26.10;;
9294;SDS011;4686;44.496;11.324;2023-01-13T06:22:21;28.93;;;23.90;;
9294;SDS011;4686;44.496;11.324;2023-01-13T06:24:49;29.80;;;25.40;;
9294;SDS011;4686;44.496;11.324;2023-01-13T06:27:18;33.90;;;26.60;;
9294;SDS011;4686;44.496;11.324;2023-01-13T06:29:47;33.07;;;26.93;;
9294;SDS011;4686;44.496;11.324;2023-01-13T06:32:15;34.47;;;27.57;;
9294;SDS011;4686;44.496;11.324;2023-01-13T06:34:43;35.93;;;28.10;;
9294;SDS011;4686;44.496;11.324;2023-01-13T06:37:11;32.13;;;27.10;;
9294;SDS011;4686;44.496;11.324;2023-01-13T06:39:40;34.27;;;28.23;;
9294;SDS011;4686;44.496;11.324;2023-01-13T06:42:08;33.17;;;26.40;;
9294;SDS011;4686;44.496;11.324;2023-01-13T06:44:56;39.53;;;30.07;;
9294;SDS011;4686;44.496;11.324;2023-01-13T06:47:23;37.20;;;30.60;;
9294;SDS011;4686;44.496;11.324;2023-01-13T06:49:51;40.33;;;29.57;;
9294;SDS011;4686;44.496;11.324;2023-01-13T06:52:18;36.80;;;30.00;;
9294;SDS011;4686;44.496;11.324;2023-01-13T06:54:47;41.40;;;27.30;;
9294;SDS011;4686;44.496;11.324;2023-01-13T06:57:15;35.57;;;28.50;;
9294;SDS011;4686;44.496;11.324;2023-01-13T06:59:42;39.50;;;29.87;;
9294;SDS011;4686;44.496;11.324;2023-01-13T07:02:11;36.27;;;29.23;;
9294;SDS011;4686;44.496;11.324;2023-01-13T07:04:40;35.60;;;29.00;;
9294;SDS011;4686;44.496;11.324;2023-01-13T07:07:09;39.67;;;29.90;;
9294;SDS011;4686;44.496;11.324;2023-01-13T07:09:37;35.27;;;30.53;;
9294;SDS011;4686;44.496;11.324;2023-01-13T07:12:04;38.47;;;31.43;;
9294;SDS011;4686;44.496;11.324;2023-01-13T07:14:31;41.57;;;30.90;;
9294;SDS011;4686;44.496;11.324;2023-01-13T07:17:18;41.53;;;30.90;;
9294;SDS011;4686;44.496;11.324;2023-01-13T07:19:49;40.87;;;30.10;;
9294;SDS011;4686;44.496;11.324;2023-01-13T07:22:17;35.75;;;27.15;;
9294;SDS011;4686;44.496;11.324;2023-01-13T07:24:45;36.43;;;31.67;;
9294;SDS011;4686;44.496;11.324;2023-01-13T07:27:14;38.80;;;32.50;;
9294;SDS011;4686;44.496;11.324;2023-01-13T07:29:41;40.13;;;31.30;;
9294;SDS011;4686;44.496;11.324;2023-01-13T07:32:08;42.53;;;30.93;;
9294;SDS011;4686;44.496;11.324;2023-01-13T07:34:44;34.27;;;28.37;;
9294;SDS011;4686;44.496;11.324;2023-01-13T07:37:11;43.87;;;35.03;;
9294;SDS011;4686;44.496;11.324;2023-01-13T07:39:39;49.87;;;37.57;;
9294;SDS011;4686;44.496;11.324;2023-01-13T07:42:06;45.43;;;36.90;;
9294;SDS011;4686;44.496;11.324;2023-01-13T07:44:51;46.70;;;38.57;;
9294;SDS011;4686;44.496;11.324;2023-01-13T07:47:19;43.87;;;38.33;;
9294;SDS011;4686;44.496;11.324;2023-01-13T07:49:48;41.63;;;34.63;;
9294;SDS011;4686;44.496;11.324;2023-01-13T07:52:16;42.03;;;33.67;;
9294;SDS011;4686;44.496;11.324;2023-01-13T07:54:43;40.87;;;32.80;;
9294;SDS011;4686;44.496;11.324;2023-01-13T07:57:10;40.13;;;33.10;;
9294;SDS011;4686;44.496;11.324;2023-01-13T07:59:38;43.27;;;32.07;;
9294;SDS011;4686;44.496;11.324;2023-01-13T08:02:08;38.77;;;32.90;;
9294;SDS011;4686;44.496;11.324;2023-01-13T08:04:36;42.17;;;34.77;;
9294;SDS011;4686;44.496;11.324;2023-01-13T08:07:05;47.23;;;34.40;;
9294;SDS011;4686;44.496;11.324;2023-01-13T08:09:32;48.10;;;34.93;;
9294;SDS011;4686;44.496;11.324;2023-01-13T08:12:00;47.67;;;34.30;;
9294;SDS011;4686;44.496;11.324;2023-01-13T08:14:45;47.17;;;34.83;;
9294;SDS011;4686;44.496;11.324;2023-01-13T08:17:16;43.37;;;32.77;;
9294;SDS011;4686;44.496;11.324;2023-01-13T08:19:43;48.70;;;33.47;;
9294;SDS011;4686;44.496;11.324;2023-01-13T08:22:11;42.47;;;32.93;;
9294;SDS011;4686;44.496;11.324;2023-01-13T08:24:39;40.40;;;33.50;;
9294;SDS011;4686;44.496;11.324;2023-01-13T08:27:06;40.47;;;33.60;;
9294;SDS011;4686;44.496;11.324;2023-01-13T08:29:34;38.70;;;33.60;;
9294;SDS011;4686;44.496;11.324;2023-01-13T08:32:01;46.60;;;33.80;;
9294;SDS011;4686;44.496;11.324;2023-01-13T08:34:28;41.10;;;34.00;;
9294;SDS011;4686;44.496;11.324;2023-01-13T08:36:56;41.43;;;34.40;;
9294;SDS011;4686;44.496;11.324;2023-01-13T08:39:29;41.90;;;34.50;;
9294;SDS011;4686;44.496;11.324;2023-01-13T08:42:00;44.43;;;33.40;;
9294;SDS011;4686;44.496;11.324;2023-01-13T08:44:28;40.90;;;32.17;;
9294;SDS011;4686;44.496;11.324;2023-01-13T08:46:56;45.73;;;33.60;;
9294;SDS011;4686;44.496;11.324;2023-01-13T08:49:23;42.30;;;32.77;;
9294;SDS011;4686;44.496;11.324;2023-01-13T08:51:53;48.63;;;34.23;;
9294;SDS011;4686;44.496;11.324;2023-01-13T08:54:20;48.30;;;36.43;;
9294;SDS011;4686;44.496;11.324;2023-01-13T08:56:49;41.03;;;33.70;;
9294;SDS011;4686;44.496;11.324;2023-01-13T08:59:18;42.67;;;34.20;;
9294;SDS011;4686;44.496;11.324;2023-01-13T09:01:46;43.33;;;33.50;;
9294;SDS011;4686;44.496;11.324;2023-01-13T09:04:15;40.50;;;32.97;;
9294;SDS011;4686;44.496;11.324;2023-01-13T09:06:45;40.37;;;32.67;;
9294;SDS011;4686;44.496;11.324;2023-01-13T09:09:12;50.20;;;34.97;;
9294;SDS011;4686;44.496;11.324;2023-01-13T09:11:42;39.50;;;35.20;;
9294;SDS011;4686;44.496;11.324;2023-01-13T09:14:30;39.77;;;34.63;;
9294;SDS011;4686;44.496;11.324;2023-01-13T09:16:58;41.80;;;34.37;;
9294;SDS011;4686;44.496;11.324;2023-01-13T09:19:25;48.33;;;37.10;;
9294;SDS011;4686;44.496;11.324;2023-01-13T09:21:53;45.30;;;36.23;;
9294;SDS011;4686;44.496;11.324;2023-01-13T09:24:21;42.30;;;33.83;;
9294;SDS011;4686;44.496;11.324;2023-01-13T09:26:50;47.80;;;34.63;;
9294;SDS011;4686;44.496;11.324;2023-01-13T09:29:17;43.63;;;34.97;;
9294;SDS011;4686;44.496;11.324;2023-01-13T09:31:46;39.97;;;34.67;;
9294;SDS011;4686;44.496;11.324;2023-01-13T09:34:14;50.27;;;32.27;;
9294;SDS011;4686;44.496;11.324;2023-01-13T09:36:59;43.47;;;32.53;;
9294;SDS011;4686;44.496;11.324;2023-01-13T09:39:26;41.33;;;30.90;;
9294;SDS011;4686;44.496;11.324;2023-01-13T09:41:54;45.80;;;33.53;;
9294;SDS011;4686;44.496;11.324;2023-01-13T09:44:43;48.33;;;34.20;;
9294;SDS011;4686;44.496;11.324;2023-01-13T09:47:16;44.63;;;33.30;;
9294;SDS011;4686;44.496;11.324;2023-01-13T09:49:45;47.73;;;34.57;;
9294;SDS011;4686;44.496;11.324;2023-01-13T09:52:13;44.90;;;34.00;;
9294;SDS011;4686;44.496;11.324;2023-01-13T09:54:44;45.47;;;34.20;;
9294;SDS011;4686;44.496;11.324;2023-01-13T09:57:17;39.37;;;32.17;;
9294;SDS011;4686;44.496;11.324;2023-01-13T09:59:45;39.67;;;33.47;;
9294;SDS011;4686;44.496;11.324;2023-01-13T10:02:18;40.07;;;34.63;;
9294;SDS011;4686;44.496;11.324;2023-01-13T10:05:00;41.00;;;35.03;;
9294;SDS011;4686;44.496;11.324;2023-01-13T10:07:28;42.47;;;35.50;;
9294;SDS011;4686;44.496;11.324;2023-01-13T10:09:57;49.93;;;34.70;;
9294;SDS011;4686;44.496;11.324;2023-01-13T10:12:25;41.57;;;34.70;;
9294;SDS011;4686;44.496;11.324;2023-01-13T10:15:12;42.80;;;35.63;;
9294;SDS011;4686;44.496;11.324;2023-01-13T10:17:43;38.60;;;33.23;;
9294;SDS011;4686;44.496;11.324;2023-01-13T10:20:14;49.50;;;32.93;;
9294;SDS011;4686;44.496;11.324;2023-01-13T10:22:48;40.27;;;33.97;;
9294;SDS011;4686;44.496;11.324;2023-01-13T10:25:20;38.50;;;33.60;;
9294;SDS011;4686;44.496;11.324;2023-01-13T10:27:49;42.67;;;33.63;;
9294;SDS011;4686;44.496;11.324;2023-01-13T10:30:18;40.30;;;33.10;;
9294;SDS011;4686;44.496;11.324;2023-01-13T10:32:49;36.73;;;30.30;;
9294;SDS011;4686;44.496;11.324;2023-01-13T10:35:20;45.10;;;33.60;;
9294;SDS011;4686;44.496;11.324;2023-01-13T10:38:10;42.30;;;32.57;;
9294;SDS011;4686;44.496;11.324;2023-01-13T10:40:45;36.13;;;30.60;;
9294;SDS011;4686;44.496;11.324;2023-01-13T10:43:13;37.70;;;30.23;;
9294;SDS011;4686;44.496;11.324;2023-01-13T10:45:42;37.17;;;31.17;;
9294;SDS011;4686;44.496;11.324;2023-01-13T10:48:11;36.03;;;30.50;;
9294;SDS011;4686;44.496;11.324;2023-01-13T10:50:39;43.43;;;33.20;;
9294;SDS011;4686;44.496;11.324;2023-01-13T10:53:17;42.23;;;33.87;;
9294;SDS011;4686;44.496;11.324;2023-01-13T10:55:56;49.60;;;34.40;;
9294;SDS011;4686;44.496;11.324;2023-01-13T10:58:24;40.77;;;34.40;;
9294;SDS011;4686;44.496;11.324;2023-01-13T11:01:01;41.00;;;33.67;;
9294;SDS011;4686;44.496;11.324;2023-01-13T11:03:36;38.37;;;31.93;;
9294;SDS011;4686;44.496;11.324;2023-01-13T11:06:05;39.10;;;30.80;;
9294;SDS011;4686;44.496;11.324;2023-01-13T11:08:42;33.30;;;29.10;;
9294;SDS011;4686;44.496;11.324;2023-01-13T11:14:09;42.80;;;29.67;;
9294;SDS011;4686;44.496;11.324;2023-01-13T11:16:59;39.33;;;26.97;;
9294;SDS011;4686;44.496;11.324;2023-01-13T11:19:30;32.60;;;25.70;;
9294;SDS011;4686;44.496;11.324;2023-01-13T11:21:59;32.17;;;23.57;;
9294;SDS011;4686;44.496;11.324;2023-01-13T11:24:33;25.90;;;23.20;;
9294;SDS011;4686;44.496;11.324;2023-01-13T11:27:02;32.53;;;23.20;;
9294;SDS011;4686;44.496;11.324;2023-01-13T11:29:33;28.17;;;23.90;;
9294;SDS011;4686;44.496;11.324;2023-01-13T11:32:07;27.03;;;22.10;;
9294;SDS011;4686;44.496;11.324;2023-01-13T11:34:38;32.07;;;24.47;;
9294;SDS011;4686;44.496;11.324;2023-01-13T11:37:07;31.80;;;25.80;;
9294;SDS011;4686;44.496;11.324;2023-01-13T11:39:39;31.97;;;25.63;;
9294;SDS011;4686;44.496;11.324;2023-01-13T11:42:11;27.00;;;24.07;;
9294;SDS011;4686;44.496;11.324;2023-01-13T11:44:49;30.10;;;24.17;;
9294;SDS011;4686;44.496;11.324;2023-01-13T11:47:20;40.47;;;29.23;;
9294;SDS011;4686;44.496;11.324;2023-01-13T11:49:51;34.57;;;29.37;;
9294;SDS011;4686;44.496;11.324;2023-01-13T11:52:20;37.90;;;29.47;;
9294;SDS011;4686;44.496;11.324;2023-01-13T11:54:58;36.20;;;29.50;;
9294;SDS011;4686;44.496;11.324;2023-01-13T11:57:35;40.20;;;28.90;;
9294;SDS011;4686;44.496;11.324;2023-01-13T12:02:52;35.90;;;28.50;;
9294;SDS011;4686;44.496;11.324;2023-01-13T12:05:24;33.20;;;28.20;;
9294;SDS011;4686;44.496;11.324;2023-01-13T12:07:57;35.53;;;29.70;;
9294;SDS011;4686;44.496;11.324;2023-01-13T12:10:35;39.50;;;31.17;;
9294;SDS011;4686;44.496;11.324;2023-01-13T12:13:06;37.13;;;30.67;;
9294;SDS011;4686;44.496;11.324;2023-01-13T12:15:48;35.30;;;31.40;;
9294;SDS011;4686;44.496;11.324;2023-01-13T12:18:25;34.47;;;29.50;;
9294;SDS011;4686;44.496;11.324;2023-01-13T12:21:01;36.23;;;30.23;;
9294;SDS011;4686;44.496;11.324;2023-01-13T12:23:31;36.90;;;29.37;;
9294;SDS011;4686;44.496;11.324;2023-01-13T12:26:04;44.83;;;34.50;;
9294;SDS011;4686;44.496;11.324;2023-01-13T12:28:39;48.07;;;35.30;;
9294;SDS011;4686;44.496;11.324;2023-01-13T12:31:07;43.50;;;35.17;;
9294;SDS011;4686;44.496;11.324;2023-01-13T12:33:39;44.97;;;34.63;;
9294;SDS011;4686;44.496;11.324;2023-01-13T12:36:13;48.37;;;36.23;;
9294;SDS011;4686;44.496;11.324;2023-01-13T12:38:43;51.63;;;38.40;;
9294;SDS011;4686;44.496;11.324;2023-01-13T12:41:13;49.93;;;40.20;;
9294;SDS011;4686;44.496;11.324;2023-01-13T12:43:44;53.47;;;38.63;;
9294;SDS011;4686;44.496;11.324;2023-01-13T12:46:33;50.50;;;40.10;;
9294;SDS011;4686;44.496;11.324;2023-01-13T12:49:13;53.30;;;41.47;;
9294;SDS011;4686;44.496;11.324;2023-01-13T12:52:07;46.43;;;39.63;;
9294;SDS011;4686;44.496;11.324;2023-01-13T12:57:25;57.97;;;42.40;;
9294;SDS011;4686;44.496;11.324;2023-01-13T13:02:42;59.03;;;43.17;;
9294;SDS011;4686;44.496;11.324;2023-01-13T13:08:25;55.80;;;42.33;;
9294;SDS011;4686;44.496;11.324;2023-01-13T13:11:05;55.97;;;42.90;;
9294;SDS011;4686;44.496;11.324;2023-01-13T13:14:02;53.07;;;44.63;;
9294;SDS011;4686;44.496;11.324;2023-01-13T13:19:44;61.20;;;46.93;;
9294;SDS011;4686;44.496;11.324;2023-01-13T13:22:35;58.67;;;45.17;;
9294;SDS011;4686;44.496;11.324;2023-01-13T13:25:17;56.33;;;44.70;;
9294;SDS011;4686;44.496;11.324;2023-01-13T13:27:45;57.30;;;43.57;;
9294;SDS011;4686;44.496;11.324;2023-01-13T13:30:17;58.60;;;45.87;;
9294;SDS011;4686;44.496;11.324;2023-01-13T13:32:52;56.47;;;43.13;;
9294;SDS011;4686;44.496;11.324;2023-01-13T13:35:32;54.40;;;42.90;;
9294;SDS011;4686;44.496;11.324;2023-01-13T13:38:09;65.70;;;46.73;;
9294;SDS011;4686;44.496;11.324;2023-01-13T13:40:57;60.73;;;44.00;;
9294;SDS011;4686;44.496;11.324;2023-01-13T13:43:44;54.80;;;44.27;;
9294;SDS011;4686;44.496;11.324;2023-01-13T13:46:29;58.67;;;43.90;;
9294;SDS011;4686;44.496;11.324;2023-01-13T13:49:13;58.60;;;43.00;;
9294;SDS011;4686;44.496;11.324;2023-01-13T13:51:43;58.40;;;44.50;;
9294;SDS011;4686;44.496;11.324;2023-01-13T13:54:14;57.73;;;43.70;;
9294;SDS011;4686;44.496;11.324;2023-01-13T13:56:44;50.13;;;41.60;;
9294;SDS011;4686;44.496;11.324;2023-01-13T13:59:12;57.80;;;43.73;;
9294;SDS011;4686;44.496;11.324;2023-01-13T14:01:42;53.10;;;43.23;;
9294;SDS011;4686;44.496;11.324;2023-01-13T14:04:11;58.00;;;43.50;;
9294;SDS011;4686;44.496;11.324;2023-01-13T14:06:47;57.77;;;43.17;;
9294;SDS011;4686;44.496;11.324;2023-01-13T14:09:16;50.80;;;42.50;;
9294;SDS011;4686;44.496;11.324;2023-01-13T14:11:52;50.73;;;42.33;;
9294;SDS011;4686;44.496;11.324;2023-01-13T14:14:20;53.47;;;43.67;;
9294;SDS011;4686;44.496;11.324;2023-01-13T14:16:48;53.37;;;43.50;;
9294;SDS011;4686;44.496;11.324;2023-01-13T14:19:24;52.30;;;44.57;;
9294;SDS011;4686;44.496;11.324;2023-01-13T14:21:54;54.77;;;44.20;;
9294;SDS011;4686;44.496;11.324;2023-01-13T14:24:21;51.43;;;43.77;;
9294;SDS011;4686;44.496;11.324;2023-01-13T14:26:50;63.90;;;46.03;;
9294;SDS011;4686;44.496;11.324;2023-01-13T14:29:18;53.23;;;42.37;;
9294;SDS011;4686;44.496;11.324;2023-01-13T14:31:46;53.67;;;42.80;;
9294;SDS011;4686;44.496;11.324;2023-01-13T14:34:15;51.07;;;41.60;;
9294;SDS011;4686;44.496;11.324;2023-01-13T14:36:43;54.47;;;42.43;;
9294;SDS011;4686;44.496;11.324;2023-01-13T14:39:25;51.93;;;41.60;;
9294;SDS011;4686;44.496;11.324;2023-01-13T14:41:54;55.40;;;44.00;;
9294;SDS011;4686;44.496;11.324;2023-01-13T14:44:22;55.40;;;43.20;;
9294;SDS011;4686;44.496;11.324;2023-01-13T14:46:51;55.63;;;43.77;;
9294;SDS011;4686;44.496;11.324;2023-01-13T14:49:22;56.10;;;44.83;;
9294;SDS011;4686;44.496;11.324;2023-01-13T14:51:50;64.00;;;46.50;;
9294;SDS011;4686;44.496;11.324;2023-01-13T14:57:10;54.67;;;44.30;;
9294;SDS011;4686;44.496;11.324;2023-01-13T14:59:41;62.20;;;44.50;;
9294;SDS011;4686;44.496;11.324;2023-01-13T15:04:55;66.37;;;45.67;;
9294;SDS011;4686;44.496;11.324;2023-01-13T15:07:25;52.97;;;43.20;;
9294;SDS011;4686;44.496;11.324;2023-01-13T15:12:41;55.67;;;46.10;;
9294;SDS011;4686;44.496;11.324;2023-01-13T15:15:19;56.93;;;42.80;;
9294;SDS011;4686;44.496;11.324;2023-01-13T15:17:48;54.60;;;44.60;;
9294;SDS011;4686;44.496;11.324;2023-01-13T15:20:16;60.53;;;45.53;;
9294;SDS011;4686;44.496;11.324;2023-01-13T15:22:43;58.20;;;42.77;;
9294;SDS011;4686;44.496;11.324;2023-01-13T15:25:11;57.50;;;42.13;;
9294;SDS011;4686;44.496;11.324;2023-01-13T15:27:39;52.30;;;39.17;;
9294;SDS011;4686;44.496;11.324;2023-01-13T15:30:13;52.30;;;39.60;;
9294;SDS011;4686;44.496;11.324;2023-01-13T15:32:40;54.10;;;39.87;;
9294;SDS011;4686;44.496;11.324;2023-01-13T15:35:08;59.10;;;43.37;;
9294;SDS011;4686;44.496;11.324;2023-01-13T15:37:35;55.10;;;43.13;;
9294;SDS011;4686;44.496;11.324;2023-01-13T15:40:03;54.00;;;42.87;;
9294;SDS011;4686;44.496;11.324;2023-01-13T15:42:30;54.00;;;42.60;;
9294;SDS011;4686;44.496;11.324;2023-01-13T15:45:17;67.00;;;45.43;;
9294;SDS011;4686;44.496;11.324;2023-01-13T15:48:01;61.27;;;43.77;;